sensor_id;sensor_type;location;lat;lon;timestamp;pressure;altitude;pressure_sealevel;temperature;humidity
50672;BME280;46021;55.882;37.654;2023-07-20T00:02:08;98100.34;;;12.48;73.68
50672;BME280;46021;55.882;37.654;2023-07-20T00:04:35;98099.91;;;12.41;74.39
50672;BME280;46021;55.882;37.654;2023-07-20T00:07:04;98093.38;;;12.34;74.63
50672;BME280;46021;55.882;37.654;2023-07-20T00:09:31;98103.25;;;12.43;74.43
50672;BME280;46021;55.882;37.654;2023-07-20T00:11:58;98105.13;;;12.41;73.80
50672;BME280;46021;55.882;37.654;2023-07-20T00:14:28;98103.84;;;12.34;74.64
50672;BME280;46021;55.882;37.654;2023-07-20T00:16:56;98106.06;;;12.40;74.09
50672;BME280;46021;55.882;37.654;2023-07-20T00:19:26;98103.84;;;12.34;74.18
50672;BME280;46021;55.882;37.654;2023-07-20T00:21:56;98117.34;;;12.41;73.88
50672;BME280;46021;55.882;37.654;2023-07-20T00:24:27;98108.44;;;12.31;74.65
50672;BME280;46021;55.882;37.654;2023-07-20T00:26:55;98111.88;;;12.31;74.84
50672;BME280;46021;55.882;37.654;2023-07-20T00:29:22;98119.91;;;12.28;74.46
50672;BME280;46021;55.882;37.654;2023-07-20T00:31:49;98109.13;;;12.20;74.64
50672;BME280;46021;55.882;37.654;2023-07-20T00:34:16;98114.25;;;12.21;75.38
50672;BME280;46021;55.882;37.654;2023-07-20T00:36:44;98117.78;;;12.20;74.92
50672;BME280;46021;55.882;37.654;2023-07-20T00:39:11;98119.66;;;12.18;74.77
50672;BME280;46021;55.882;37.654;2023-07-20T00:41:41;98123.19;;;12.17;74.98
50672;BME280;46021;55.882;37.654;2023-07-20T00:44:08;98121.63;;;12.15;75.12
50672;BME280;46021;55.882;37.654;2023-07-20T00:46:38;98124.06;;;12.18;74.71
50672;BME280;46021;55.882;37.654;2023-07-20T00:49:07;98122.94;;;12.07;75.42
50672;BME280;46021;55.882;37.654;2023-07-20T00:51:34;98131.72;;;12.06;75.59
50672;BME280;46021;55.882;37.654;2023-07-20T00:54:04;98122.19;;;12.05;75.37
50672;BME280;46021;55.882;37.654;2023-07-20T00:56:32;98130.25;;;12.02;75.52
50672;BME280;46021;55.882;37.654;2023-07-20T00:58:59;98130.03;;;12.05;75.77
50672;BME280;46021;55.882;37.654;2023-07-20T01:01:27;98127.72;;;12.01;75.59
50672;BME280;46021;55.882;37.654;2023-07-20T01:03:54;98126.03;;;12.00;75.75
50672;BME280;46021;55.882;37.654;2023-07-20T01:06:28;98133.97;;;11.98;76.20
50672;BME280;46021;55.882;37.654;2023-07-20T01:09:05;98131.47;;;11.97;76.08
50672;BME280;46021;55.882;37.654;2023-07-20T01:11:37;98137.44;;;11.99;75.45
50672;BME280;46021;55.882;37.654;2023-07-20T01:14:06;98129.13;;;11.92;75.92
50672;BME280;46021;55.882;37.654;2023-07-20T01:16:34;98137.91;;;11.91;76.15
50672;BME280;46021;55.882;37.654;2023-07-20T01:19:01;98133.66;;;11.88;76.50
50672;BME280;46021;55.882;37.654;2023-07-20T01:21:33;98138.97;;;11.87;76.32
50672;BME280;46021;55.882;37.654;2023-07-20T01:24:17;98137.16;;;11.89;76.58
50672;BME280;46021;55.882;37.654;2023-07-20T01:27:05;98136.22;;;11.90;76.41
50672;BME280;46021;55.882;37.654;2023-07-20T01:29:54;98121.66;;;11.86;76.84
50672;BME280;46021;55.882;37.654;2023-07-20T01:32:32;98132.84;;;11.88;76.38
50672;BME280;46021;55.882;37.654;2023-07-20T01:35:01;98140.69;;;11.88;76.37
50672;BME280;46021;55.882;37.654;2023-07-20T01:37:30;98140.75;;;11.86;76.28
50672;BME280;46021;55.882;37.654;2023-07-20T01:39:58;98135.53;;;11.86;76.25
50672;BME280;46021;55.882;37.654;2023-07-20T01:42:30;98135.63;;;11.85;76.73
50672;BME280;46021;55.882;37.654;2023-07-20T01:44:57;98142.53;;;11.86;76.46
50672;BME280;46021;55.882;37.654;2023-07-20T01:47:24;98138.06;;;11.88;76.85
50672;BME280;46021;55.882;37.654;2023-07-20T01:49:52;98141.44;;;11.90;76.39
50672;BME280;46021;55.882;37.654;2023-07-20T01:52:19;98138.06;;;11.88;76.92
50672;BME280;46021;55.882;37.654;2023-07-20T01:54:46;98132.69;;;11.91;77.00
50672;BME280;46021;55.882;37.654;2023-07-20T01:57:13;98134.19;;;11.95;76.59
50672;BME280;46021;55.882;37.654;2023-07-20T01:59:40;98132.94;;;12.01;76.77
50672;BME280;46021;55.882;37.654;2023-07-20T02:02:08;98124.28;;;12.00;76.62
50672;BME280;46021;55.882;37.654;2023-07-20T02:04:37;98127.34;;;12.07;76.48
50672;BME280;46021;55.882;37.654;2023-07-20T02:07:05;98142.44;;;12.16;76.58
50672;BME280;46021;55.882;37.654;2023-07-20T02:09:32;98134.09;;;12.24;76.12
50672;BME280;46021;55.882;37.654;2023-07-20T02:11:59;98136.31;;;12.30;76.12
50672;BME280;46021;55.882;37.654;2023-07-20T02:14:27;98140.41;;;12.34;75.61
50672;BME280;46021;55.882;37.654;2023-07-20T02:16:55;98137.94;;;12.33;75.75
50672;BME280;46021;55.882;37.654;2023-07-20T02:19:28;98141.91;;;12.38;75.56
50672;BME280;46021;55.882;37.654;2023-07-20T02:21:55;98133.13;;;12.39;75.61
50672;BME280;46021;55.882;37.654;2023-07-20T02:24:23;98132.72;;;12.45;74.98
50672;BME280;46021;55.882;37.654;2023-07-20T02:26:50;98135.69;;;12.54;74.95
50672;BME280;46021;55.882;37.654;2023-07-20T02:29:17;98132.34;;;12.52;74.98
50672;BME280;46021;55.882;37.654;2023-07-20T02:31:44;98139.06;;;12.56;74.84
50672;BME280;46021;55.882;37.654;2023-07-20T02:34:11;98139.06;;;12.56;74.91
50672;BME280;46021;55.882;37.654;2023-07-20T02:36:39;98139.69;;;12.59;74.45
50672;BME280;46021;55.882;37.654;2023-07-20T02:39:08;98143.88;;;12.62;74.73
50672;BME280;46021;55.882;37.654;2023-07-20T02:41:37;98144.06;;;12.59;74.56
50672;BME280;46021;55.882;37.654;2023-07-20T02:44:04;98150.78;;;12.63;74.37
50672;BME280;46021;55.882;37.654;2023-07-20T02:46:32;98146.50;;;12.62;73.97
50672;BME280;46021;55.882;37.654;2023-07-20T02:49:00;98143.69;;;12.65;74.21
50672;BME280;46021;55.882;37.654;2023-07-20T02:51:28;98151.22;;;12.70;74.10
50672;BME280;46021;55.882;37.654;2023-07-20T02:53:55;98157.81;;;12.75;74.27
50672;BME280;46021;55.882;37.654;2023-07-20T02:56:22;98160.84;;;12.69;73.91
50672;BME280;46021;55.882;37.654;2023-07-20T02:58:51;98157.09;;;12.73;74.31
50672;BME280;46021;55.882;37.654;2023-07-20T03:01:18;98152.81;;;12.85;74.29
50672;BME280;46021;55.882;37.654;2023-07-20T03:03:49;98160.03;;;13.21;73.88
50672;BME280;46021;55.882;37.654;2023-07-20T03:06:16;98156.91;;;13.42;73.30
50672;BME280;46021;55.882;37.654;2023-07-20T03:08:43;98164.34;;;13.74;72.26
50672;BME280;46021;55.882;37.654;2023-07-20T03:11:13;98163.44;;;14.12;72.36
50672;BME280;46021;55.882;37.654;2023-07-20T03:13:41;98164.84;;;14.41;71.69
50672;BME280;46021;55.882;37.654;2023-07-20T03:16:10;98162.47;;;14.62;70.67
50672;BME280;46021;55.882;37.654;2023-07-20T03:18:38;98172.84;;;14.88;69.95
50672;BME280;46021;55.882;37.654;2023-07-20T03:21:07;98171.38;;;15.19;70.09
50672;BME280;46021;55.882;37.654;2023-07-20T03:23:34;98169.31;;;15.47;68.94
50672;BME280;46021;55.882;37.654;2023-07-20T03:26:01;98175.53;;;15.69;68.14
50672;BME280;46021;55.882;37.654;2023-07-20T03:28:29;98174.09;;;15.65;66.04
50672;BME280;46021;55.882;37.654;2023-07-20T03:30:57;98168.50;;;15.69;66.27
50672;BME280;46021;55.882;37.654;2023-07-20T03:33:28;98173.91;;;15.79;65.88
50672;BME280;46021;55.882;37.654;2023-07-20T03:35:57;98169.72;;;15.99;65.58
50672;BME280;46021;55.882;37.654;2023-07-20T03:38:25;98168.63;;;16.24;65.87
50672;BME280;46021;55.882;37.654;2023-07-20T03:40:54;98173.53;;;16.17;64.32
50672;BME280;46021;55.882;37.654;2023-07-20T03:43:21;98177.25;;;16.26;64.09
50672;BME280;46021;55.882;37.654;2023-07-20T03:45:48;98168.34;;;16.38;63.33
50672;BME280;46021;55.882;37.654;2023-07-20T03:48:17;98171.22;;;16.47;63.46
50672;BME280;46021;55.882;37.654;2023-07-20T03:50:46;98163.44;;;16.56;62.13
50672;BME280;46021;55.882;37.654;2023-07-20T03:53:14;98167.53;;;16.82;62.45
50672;BME280;46021;55.882;37.654;2023-07-20T03:55:41;98170.19;;;16.70;60.97
50672;BME280;46021;55.882;37.654;2023-07-20T03:58:09;98170.72;;;16.97;61.95
50672;BME280;46021;55.882;37.654;2023-07-20T04:00:36;98169.78;;;17.40;61.69
50672;BME280;46021;55.882;37.654;2023-07-20T04:03:03;98171.50;;;17.71;60.76
50672;BME280;46021;55.882;37.654;2023-07-20T04:05:30;98168.81;;;17.62;59.78
50672;BME280;46021;55.882;37.654;2023-07-20T04:07:58;98173.25;;;17.40;59.74
50672;BME280;46021;55.882;37.654;2023-07-20T04:10:25;98169.81;;;16.86;60.13
50672;BME280;46021;55.882;37.654;2023-07-20T04:12:52;98175.00;;;16.54;60.76
50672;BME280;46021;55.882;37.654;2023-07-20T04:15:19;98178.25;;;16.46;61.06
50672;BME280;46021;55.882;37.654;2023-07-20T04:17:46;98185.13;;;16.15;61.36
50672;BME280;46021;55.882;37.654;2023-07-20T04:20:13;98180.00;;;16.13;61.92
50672;BME280;46021;55.882;37.654;2023-07-20T04:22:41;98185.63;;;16.09;62.45
50672;BME280;46021;55.882;37.654;2023-07-20T04:25:12;98179.41;;;16.10;62.19
50672;BME280;46021;55.882;37.654;2023-07-20T04:27:39;98180.97;;;16.12;62.80
50672;BME280;46021;55.882;37.654;2023-07-20T04:30:11;98179.38;;;16.21;62.72
50672;BME280;46021;55.882;37.654;2023-07-20T04:32:39;98189.28;;;16.40;63.06
50672;BME280;46021;55.882;37.654;2023-07-20T04:35:17;98178.31;;;17.11;62.53
50672;BME280;46021;55.882;37.654;2023-07-20T04:37:46;98187.75;;;17.98;61.89
50672;BME280;46021;55.882;37.654;2023-07-20T04:40:18;98188.66;;;18.97;61.23
50672;BME280;46021;55.882;37.654;2023-07-20T04:42:45;98179.25;;;19.71;58.57
50672;BME280;46021;55.882;37.654;2023-07-20T04:45:12;98184.22;;;19.94;56.47
50672;BME280;46021;55.882;37.654;2023-07-20T04:47:40;98189.25;;;20.24;55.11
50672;BME280;46021;55.882;37.654;2023-07-20T04:50:07;98178.75;;;20.33;54.34
50672;BME280;46021;55.882;37.654;2023-07-20T04:52:34;98166.78;;;20.01;53.48
50672;BME280;46021;55.882;37.654;2023-07-20T04:55:01;98178.16;;;20.39;54.46
50672;BME280;46021;55.882;37.654;2023-07-20T04:57:31;98174.53;;;20.12;52.45
50672;BME280;46021;55.882;37.654;2023-07-20T04:59:59;98180.41;;;20.06;53.42
50672;BME280;46021;55.882;37.654;2023-07-20T05:02:28;98180.72;;;20.49;52.96
50672;BME280;46021;55.882;37.654;2023-07-20T05:04:55;98185.19;;;21.12;52.78
50672;BME280;46021;55.882;37.654;2023-07-20T05:07:22;98190.03;;;21.34;51.71
50672;BME280;46021;55.882;37.654;2023-07-20T05:09:49;98190.16;;;21.77;51.40
50672;BME280;46021;55.882;37.654;2023-07-20T05:12:17;98187.88;;;21.56;50.27
50672;BME280;46021;55.882;37.654;2023-07-20T05:14:46;98179.75;;;21.39;49.41
50672;BME280;46021;55.882;37.654;2023-07-20T05:17:13;98191.53;;;20.83;49.96
50672;BME280;46021;55.882;37.654;2023-07-20T05:19:40;98192.63;;;20.72;50.41
50672;BME280;46021;55.882;37.654;2023-07-20T05:22:07;98190.28;;;20.87;51.43
50672;BME280;46021;55.882;37.654;2023-07-20T05:24:34;98190.34;;;20.95;50.45
50672;BME280;46021;55.882;37.654;2023-07-20T05:27:01;98192.16;;;21.13;49.32
50672;BME280;46021;55.882;37.654;2023-07-20T05:29:29;98197.00;;;21.17;50.32
50672;BME280;46021;55.882;37.654;2023-07-20T05:31:57;98195.44;;;21.51;49.57
50672;BME280;46021;55.882;37.654;2023-07-20T05:34:24;98188.78;;;22.25;49.41
50672;BME280;46021;55.882;37.654;2023-07-20T05:36:51;98196.50;;;22.53;48.58
50672;BME280;46021;55.882;37.654;2023-07-20T05:39:18;98193.31;;;22.49;47.82
50672;BME280;46021;55.882;37.654;2023-07-20T05:41:45;98192.63;;;22.39;46.78
50672;BME280;46021;55.882;37.654;2023-07-20T05:44:12;98186.81;;;22.01;47.30
50672;BME280;46021;55.882;37.654;2023-07-20T05:46:39;98192.41;;;21.64;47.03
50672;BME280;46021;55.882;37.654;2023-07-20T05:49:07;98187.59;;;21.93;47.44
50672;BME280;46021;55.882;37.654;2023-07-20T05:51:34;98185.94;;;22.27;46.16
50672;BME280;46021;55.882;37.654;2023-07-20T05:54:02;98182.06;;;22.21;46.20
50672;BME280;46021;55.882;37.654;2023-07-20T05:56:28;98191.66;;;22.40;45.49
50672;BME280;46021;55.882;37.654;2023-07-20T05:58:55;98181.09;;;22.65;45.24
50672;BME280;46021;55.882;37.654;2023-07-20T06:01:22;98184.66;;;23.23;45.87
50672;BME280;46021;55.882;37.654;2023-07-20T06:03:52;98183.16;;;23.53;44.42
50672;BME280;46021;55.882;37.654;2023-07-20T06:06:20;98193.22;;;22.67;44.89
50672;BME280;46021;55.882;37.654;2023-07-20T06:08:48;98183.84;;;23.14;45.09
50672;BME280;46021;55.882;37.654;2023-07-20T06:11:15;98188.31;;;23.46;44.86
50672;BME280;46021;55.882;37.654;2023-07-20T06:13:42;98195.81;;;23.43;43.97
50672;BME280;46021;55.882;37.654;2023-07-20T06:16:10;98192.75;;;22.88;43.32
50672;BME280;46021;55.882;37.654;2023-07-20T06:18:36;98190.56;;;22.75;43.06
50672;BME280;46021;55.882;37.654;2023-07-20T06:21:04;98191.06;;;22.79;43.96
50672;BME280;46021;55.882;37.654;2023-07-20T06:23:32;98197.38;;;22.70;43.42
50672;BME280;46021;55.882;37.654;2023-07-20T06:25:59;98197.56;;;22.26;43.67
50672;BME280;46021;55.882;37.654;2023-07-20T06:28:26;98200.09;;;21.31;44.80
50672;BME280;46021;55.882;37.654;2023-07-20T06:30:59;98198.44;;;20.20;47.30
50672;BME280;46021;55.882;37.654;2023-07-20T06:33:26;98203.25;;;19.40;48.82
50672;BME280;46021;55.882;37.654;2023-07-20T06:35:53;98198.19;;;18.69;50.32
50672;BME280;46021;55.882;37.654;2023-07-20T06:38:20;98204.66;;;18.36;50.90
50672;BME280;46021;55.882;37.654;2023-07-20T06:40:51;98202.50;;;18.10;51.79
50672;BME280;46021;55.882;37.654;2023-07-20T06:43:18;98198.53;;;17.95;51.38
50672;BME280;46021;55.882;37.654;2023-07-20T06:45:51;98201.75;;;17.77;52.30
50672;BME280;46021;55.882;37.654;2023-07-20T06:48:18;98201.75;;;17.77;51.79
50672;BME280;46021;55.882;37.654;2023-07-20T06:50:45;98205.19;;;17.68;52.90
50672;BME280;46021;55.882;37.654;2023-07-20T06:53:12;98188.53;;;17.46;52.65
50672;BME280;46021;55.882;37.654;2023-07-20T06:55:42;98192.66;;;17.39;53.10
50672;BME280;46021;55.882;37.654;2023-07-20T06:58:10;98204.28;;;17.37;52.79
50672;BME280;46021;55.882;37.654;2023-07-20T07:00:38;98192.38;;;17.42;52.87
50672;BME280;46021;55.882;37.654;2023-07-20T07:03:05;98206.84;;;17.48;52.87
50672;BME280;46021;55.882;37.654;2023-07-20T07:05:35;98202.16;;;17.51;53.31
50672;BME280;46021;55.882;37.654;2023-07-20T07:08:03;98202.34;;;17.60;53.53
50672;BME280;46021;55.882;37.654;2023-07-20T07:10:35;98204.78;;;17.72;53.25
50672;BME280;46021;55.882;37.654;2023-07-20T07:13:03;98209.50;;;17.79;52.78
50672;BME280;46021;55.882;37.654;2023-07-20T07:15:31;98197.97;;;17.70;52.41
50672;BME280;46021;55.882;37.654;2023-07-20T07:17:59;98212.56;;;17.74;52.25
50672;BME280;46021;55.882;37.654;2023-07-20T07:20:26;98200.28;;;17.63;52.28
50672;BME280;46021;55.882;37.654;2023-07-20T07:22:53;98214.16;;;17.65;51.50
50672;BME280;46021;55.882;37.654;2023-07-20T07:25:21;98216.25;;;17.62;52.20
50672;BME280;46021;55.882;37.654;2023-07-20T07:27:52;98216.25;;;17.62;51.90
50672;BME280;46021;55.882;37.654;2023-07-20T07:30:19;98197.34;;;17.57;51.54
50672;BME280;46021;55.882;37.654;2023-07-20T07:32:48;98204.47;;;17.66;49.87
50672;BME280;46021;55.882;37.654;2023-07-20T07:35:15;98202.72;;;17.76;49.75
50672;BME280;46021;55.882;37.654;2023-07-20T07:37:42;98215.47;;;17.92;48.99
50672;BME280;46021;55.882;37.654;2023-07-20T07:42:55;98210.22;;;18.02;48.03
50672;BME280;46021;55.882;37.654;2023-07-20T07:45:22;98204.28;;;18.09;47.75
50672;BME280;46021;55.882;37.654;2023-07-20T07:47:51;98207.06;;;18.08;47.79
50672;BME280;46021;55.882;37.654;2023-07-20T07:50:18;98223.66;;;18.29;47.90
50672;BME280;46021;55.882;37.654;2023-07-20T07:52:45;98212.44;;;18.37;47.88
50672;BME280;46021;55.882;37.654;2023-07-20T07:55:12;98212.72;;;18.44;47.89
50672;BME280;46021;55.882;37.654;2023-07-20T07:57:39;98220.13;;;18.60;46.98
50672;BME280;46021;55.882;37.654;2023-07-20T08:00:07;98217.09;;;18.64;47.04
50672;BME280;46021;55.882;37.654;2023-07-20T08:02:40;98211.03;;;18.83;47.80
50672;BME280;46021;55.882;37.654;2023-07-20T08:05:09;98215.19;;;18.86;46.37
50672;BME280;46021;55.882;37.654;2023-07-20T08:07:37;98217.97;;;18.84;45.25
50672;BME280;46021;55.882;37.654;2023-07-20T08:10:05;98216.59;;;18.90;45.13
50672;BME280;46021;55.882;37.654;2023-07-20T08:12:32;98209.66;;;18.89;45.01
50672;BME280;46021;55.882;37.654;2023-07-20T08:14:59;98215.19;;;18.96;45.09
50672;BME280;46021;55.882;37.654;2023-07-20T08:17:26;98214.38;;;18.95;45.78
50672;BME280;46021;55.882;37.654;2023-07-20T08:19:53;98210.47;;;18.99;45.92
50672;BME280;46021;55.882;37.654;2023-07-20T08:22:22;98217.19;;;19.13;45.26
50672;BME280;46021;55.882;37.654;2023-07-20T08:24:49;98217.44;;;19.00;44.98
50672;BME280;46021;55.882;37.654;2023-07-20T08:27:16;98214.53;;;19.23;45.21
50672;BME280;46021;55.882;37.654;2023-07-20T08:29:43;98225.22;;;19.31;45.42
50672;BME280;46021;55.882;37.654;2023-07-20T08:32:13;98226.03;;;19.51;45.91
50672;BME280;46021;55.882;37.654;2023-07-20T08:34:41;98211.81;;;19.62;45.35
50672;BME280;46021;55.882;37.654;2023-07-20T08:37:08;98209.59;;;19.67;45.62
50672;BME280;46021;55.882;37.654;2023-07-20T08:39:38;98231.16;;;19.53;45.29
50672;BME280;46021;55.882;37.654;2023-07-20T08:42:06;98216.88;;;19.26;45.09
50672;BME280;46021;55.882;37.654;2023-07-20T08:44:33;98231.03;;;19.44;45.29
50672;BME280;46021;55.882;37.654;2023-07-20T08:47:04;98213.53;;;19.53;44.81
50672;BME280;46021;55.882;37.654;2023-07-20T08:49:33;98218.75;;;19.82;43.73
50672;BME280;46021;55.882;37.654;2023-07-20T08:52:01;98230.72;;;19.86;43.82
50672;BME280;46021;55.882;37.654;2023-07-20T08:54:31;98219.75;;;19.62;44.02
50672;BME280;46021;55.882;37.654;2023-07-20T08:57:02;98224.59;;;19.86;44.04
50672;BME280;46021;55.882;37.654;2023-07-20T08:59:30;98218.25;;;20.44;43.74
50672;BME280;46021;55.882;37.654;2023-07-20T09:01:58;98222.06;;;20.59;43.51
50672;BME280;46021;55.882;37.654;2023-07-20T09:04:26;98231.34;;;20.45;43.70
50672;BME280;46021;55.882;37.654;2023-07-20T09:06:53;98225.16;;;20.82;43.72
50672;BME280;46021;55.882;37.654;2023-07-20T09:09:20;98222.41;;;20.92;43.82
50672;BME280;46021;55.882;37.654;2023-07-20T09:11:48;98225.53;;;22.12;43.93
50672;BME280;46021;55.882;37.654;2023-07-20T09:14:17;98221.41;;;23.35;40.51
50672;BME280;46021;55.882;37.654;2023-07-20T09:16:48;98233.47;;;24.04;39.01
50672;BME280;46021;55.882;37.654;2023-07-20T09:19:16;98221.03;;;23.96;38.62
50672;BME280;46021;55.882;37.654;2023-07-20T09:21:46;98239.00;;;23.20;40.10
50672;BME280;46021;55.882;37.654;2023-07-20T09:24:13;98234.28;;;22.04;41.59
50672;BME280;46021;55.882;37.654;2023-07-20T09:26:40;98231.53;;;21.70;41.99
50672;BME280;46021;55.882;37.654;2023-07-20T09:29:08;98233.47;;;21.06;42.71
50672;BME280;46021;55.882;37.654;2023-07-20T09:31:36;98244.06;;;20.88;43.82
50672;BME280;46021;55.882;37.654;2023-07-20T09:34:04;98231.97;;;21.21;43.82
50672;BME280;46021;55.882;37.654;2023-07-20T09:36:33;98245.63;;;22.23;41.88
50672;BME280;46021;55.882;37.654;2023-07-20T09:39:01;98243.50;;;23.28;40.83
50672;BME280;46021;55.882;37.654;2023-07-20T09:41:29;98237.84;;;24.36;40.36
50672;BME280;46021;55.882;37.654;2023-07-20T09:43:56;98255.28;;;25.18;38.17
50672;BME280;46021;55.882;37.654;2023-07-20T09:46:23;98245.72;;;24.21;37.48
50672;BME280;46021;55.882;37.654;2023-07-20T09:48:55;98244.00;;;23.31;38.40
50672;BME280;46021;55.882;37.654;2023-07-20T09:51:23;98256.81;;;22.77;39.95
50672;BME280;46021;55.882;37.654;2023-07-20T09:53:52;98243.16;;;23.23;39.86
50672;BME280;46021;55.882;37.654;2023-07-20T09:56:21;98246.81;;;23.22;39.23
50672;BME280;46021;55.882;37.654;2023-07-20T09:58:48;98254.19;;;22.08;40.79
50672;BME280;46021;55.882;37.654;2023-07-20T10:01:21;98258.84;;;21.62;42.16
50672;BME280;46021;55.882;37.654;2023-07-20T10:03:49;98264.78;;;20.74;44.75
50672;BME280;46021;55.882;37.654;2023-07-20T10:06:23;98269.63;;;20.41;45.99
50672;BME280;46021;55.882;37.654;2023-07-20T10:08:53;98264.31;;;20.23;47.50
50672;BME280;46021;55.882;37.654;2023-07-20T10:11:22;98271.28;;;20.15;47.59
50672;BME280;46021;55.882;37.654;2023-07-20T10:13:53;98265.06;;;20.43;47.69
50672;BME280;46021;55.882;37.654;2023-07-20T10:16:22;98263.38;;;21.70;45.72
50672;BME280;46021;55.882;37.654;2023-07-20T10:19:01;98256.56;;;22.19;41.25
50672;BME280;46021;55.882;37.654;2023-07-20T10:21:33;98258.75;;;21.98;41.78
50672;BME280;46021;55.882;37.654;2023-07-20T10:24:02;98258.16;;;21.60;41.79
50672;BME280;46021;55.882;37.654;2023-07-20T10:26:30;98250.53;;;22.09;41.89
50672;BME280;46021;55.882;37.654;2023-07-20T10:28:58;98263.91;;;21.73;40.97
50672;BME280;46021;55.882;37.654;2023-07-20T10:31:26;98262.63;;;21.23;42.11
50672;BME280;46021;55.882;37.654;2023-07-20T10:33:55;98253.47;;;21.18;42.66
50672;BME280;46021;55.882;37.654;2023-07-20T10:36:25;98264.88;;;20.82;43.61
50672;BME280;46021;55.882;37.654;2023-07-20T10:38:55;98270.78;;;20.94;43.81
50672;BME280;46021;55.882;37.654;2023-07-20T10:41:28;98257.00;;;21.80;42.08
50672;BME280;46021;55.882;37.654;2023-07-20T10:43:59;98252.31;;;22.27;41.89
50672;BME280;46021;55.882;37.654;2023-07-20T10:46:41;98264.94;;;22.75;41.26
50672;BME280;46021;55.882;37.654;2023-07-20T10:49:10;98244.13;;;22.46;41.07
50672;BME280;46021;55.882;37.654;2023-07-20T10:51:42;98259.91;;;22.48;41.85
50672;BME280;46021;55.882;37.654;2023-07-20T10:54:34;98246.97;;;23.20;41.50
50672;BME280;46021;55.882;37.654;2023-07-20T10:57:23;98249.28;;;24.05;39.66
50672;BME280;46021;55.882;37.654;2023-07-20T10:59:50;98245.78;;;24.61;39.38
50672;BME280;46021;55.882;37.654;2023-07-20T11:02:19;98238.59;;;24.93;38.18
50672;BME280;46021;55.882;37.654;2023-07-20T11:04:47;98244.44;;;25.19;37.45
50672;BME280;46021;55.882;37.654;2023-07-20T11:10:14;98247.53;;;25.54;36.99
50672;BME280;46021;55.882;37.654;2023-07-20T11:12:41;98248.44;;;25.61;36.77
50672;BME280;46021;55.882;37.654;2023-07-20T11:15:08;98247.50;;;25.08;37.01
50672;BME280;46021;55.882;37.654;2023-07-20T11:17:35;98252.09;;;25.22;36.68
50672;BME280;46021;55.882;37.654;2023-07-20T11:20:05;98242.50;;;24.82;36.93
50672;BME280;46021;55.882;37.654;2023-07-20T11:22:33;98248.72;;;24.26;37.58
50672;BME280;46021;55.882;37.654;2023-07-20T11:25:00;98242.28;;;24.92;37.11
50672;BME280;46021;55.882;37.654;2023-07-20T11:27:31;98249.06;;;25.25;37.51
50672;BME280;46021;55.882;37.654;2023-07-20T11:29:58;98249.94;;;25.18;37.59
50672;BME280;46021;55.882;37.654;2023-07-20T11:32:25;98267.50;;;25.58;37.51
50672;BME280;46021;55.882;37.654;2023-07-20T11:34:52;98247.34;;;25.56;37.13
50672;BME280;46021;55.882;37.654;2023-07-20T11:37:19;98257.81;;;24.48;38.93
50672;BME280;46021;55.882;37.654;2023-07-20T11:39:46;98282.19;;;22.63;41.77
50672;BME280;46021;55.882;37.654;2023-07-20T11:42:14;98276.81;;;21.68;43.28
50672;BME280;46021;55.882;37.654;2023-07-20T11:44:42;98277.09;;;21.11;44.55
50672;BME280;46021;55.882;37.654;2023-07-20T11:47:10;98288.69;;;21.28;43.30
50672;BME280;46021;55.882;37.654;2023-07-20T11:49:39;98279.88;;;20.64;44.28
50672;BME280;46021;55.882;37.654;2023-07-20T11:52:07;98290.31;;;20.38;44.87
50672;BME280;46021;55.882;37.654;2023-07-20T11:54:35;98298.38;;;19.89;46.50
50672;BME280;46021;55.882;37.654;2023-07-20T11:57:02;98281.94;;;19.46;48.51
50672;BME280;46021;55.882;37.654;2023-07-20T11:59:31;98291.69;;;19.36;49.16
50672;BME280;46021;55.882;37.654;2023-07-20T12:02:01;98287.50;;;19.63;49.43
50672;BME280;46021;55.882;37.654;2023-07-20T12:04:30;98305.47;;;19.89;49.04
50672;BME280;46021;55.882;37.654;2023-07-20T12:06:57;98305.19;;;19.92;48.81
50672;BME280;46021;55.882;37.654;2023-07-20T12:09:24;98302.81;;;19.59;47.44
50672;BME280;46021;55.882;37.654;2023-07-20T12:11:51;98307.56;;;19.26;46.85
50672;BME280;46021;55.882;37.654;2023-07-20T12:14:19;98298.09;;;19.43;47.51
50672;BME280;46021;55.882;37.654;2023-07-20T12:16:52;98309.53;;;19.83;46.07
50672;BME280;46021;55.882;37.654;2023-07-20T12:19:25;98304.22;;;19.73;45.19
50672;BME280;46021;55.882;37.654;2023-07-20T12:21:57;98297.78;;;19.95;45.23
50672;BME280;46021;55.882;37.654;2023-07-20T12:24:25;98294.22;;;20.24;45.37
50672;BME280;46021;55.882;37.654;2023-07-20T12:26:56;98284.00;;;20.76;44.67
50672;BME280;46021;55.882;37.654;2023-07-20T12:29:24;98289.97;;;21.06;44.78
50672;BME280;46021;55.882;37.654;2023-07-20T12:31:55;98295.03;;;20.72;44.90
50672;BME280;46021;55.882;37.654;2023-07-20T12:34:22;98293.28;;;20.62;45.32
50672;BME280;46021;55.882;37.654;2023-07-20T12:36:50;98292.63;;;20.78;45.50
50672;BME280;46021;55.882;37.654;2023-07-20T12:39:17;98288.38;;;20.58;45.66
50672;BME280;46021;55.882;37.654;2023-07-20T12:41:44;98291.41;;;20.73;46.17
50672;BME280;46021;55.882;37.654;2023-07-20T12:44:11;98285.41;;;20.98;45.99
50672;BME280;46021;55.882;37.654;2023-07-20T12:46:37;98287.72;;;21.29;45.78
50672;BME280;46021;55.882;37.654;2023-07-20T12:49:04;98286.94;;;21.37;44.67
50672;BME280;46021;55.882;37.654;2023-07-20T12:51:31;98277.84;;;21.03;45.39
50672;BME280;46021;55.882;37.654;2023-07-20T12:54:00;98279.94;;;20.82;45.96
50672;BME280;46021;55.882;37.654;2023-07-20T12:56:27;98282.78;;;20.71;45.92
50672;BME280;46021;55.882;37.654;2023-07-20T12:58:54;98289.34;;;20.29;47.22
50672;BME280;46021;55.882;37.654;2023-07-20T13:01:21;98285.41;;;19.96;48.19
50672;BME280;46021;55.882;37.654;2023-07-20T13:03:48;98283.03;;;20.02;47.80